Time;durP1;ratioP1;P1;durP2;ratioP2;P2;SDS_P1;SDS_P2;PMS_P1;PMS_P2;Temp;Humidity;BMP_temperature;BMP_pressure;BME280_temperature;BME280_humidity;BME280_pressure;Samples;Min_cycle;Max_cycle;Signal;HPM_P1;HPM_P2
2022/01/12 00:00:52;;;;;;;13.33;4.87;;;-4.00;98.50;;;-6.59;73.42;101644.72;10373949;28;98254;-75
2022/01/12 00:05:55;;;;;;;14.57;4.60;;;-4.10;99.00;;;-6.60;73.81;101651.59;10377548;28;96928;-75
2022/01/12 00:11:00;;;;;;;12.40;3.87;;;-4.10;98.30;;;-6.61;74.28;101654.19;10372430;28;97305;-75
2022/01/12 00:16:04;;;;;;;10.43;3.90;;;-4.10;98.80;;;-6.54;74.50;101648.06;10405871;27;98429;-75
2022/01/12 00:21:07;;;;;;;6.57;3.03;;;-4.10;99.50;;;-6.47;74.19;101652.28;10362739;27;98490;-75
2022/01/12 00:26:23;;;;;;;9.47;3.60;;;-4.10;98.90;;;-6.30;73.62;101657.16;10363579;28;98416;-77
2022/01/12 00:36:48;;;;;;;8.55;3.80;;;-3.90;98.00;;;-6.33;73.37;101663.25;10363314;28;98600;-77
2022/01/12 00:41:51;;;;;;;11.63;4.03;;;-3.90;98.70;;;-6.40;73.35;101671.97;10376795;27;96980;-77
2022/01/12 00:46:54;;;;;;;15.27;4.50;;;-4.00;98.90;;;-6.42;73.81;101675.47;10398416;27;97479;-77
2022/01/12 00:51:57;;;;;;;12.33;4.80;;;-4.00;97.90;;;-6.44;74.27;101678.06;10345653;28;99084;-77
2022/01/12 00:57:00;;;;;;;17.27;5.60;;;-4.00;99.80;;;-6.44;74.38;101684.97;10360915;28;96665;-77
2022/01/12 01:02:03;;;;;;;13.17;4.43;;;-4.00;99.30;;;-6.52;74.25;101680.78;10344879;28;96895;-77
2022/01/12 01:07:06;;;;;;;14.03;5.97;;;-4.10;98.90;;;-6.64;74.28;101693.91;10368511;27;99230;-76
2022/01/12 01:12:09;;;;;;;10.77;5.27;;;-4.20;99.90;;;-6.75;74.15;101688.03;10358862;28;97082;-76
2022/01/12 01:27:57;;;;;;;9.13;2.97;;;-4.50;99.90;;;-7.17;75.88;101697.22;10354215;28;98259;-76
2022/01/12 01:33:03;;;;;;;10.50;3.57;;;-4.60;99.90;;;-7.27;75.61;101689.56;10354551;28;98417;-76
2022/01/12 01:38:07;;;;;;;15.60;5.43;;;-4.70;99.90;;;-7.31;76.40;101705.97;10373163;27;96665;-76
2022/01/12 01:53:54;;;;;;;8.10;3.45;;;-4.90;99.90;;;-7.47;77.29;101696.69;10346290;28;98120;-76
2022/01/12 01:58:57;;;;;;;9.77;4.10;;;-4.90;99.90;;;-7.50;77.15;101708.75;10377394;27;97495;-76
2022/01/12 02:04:02;;;;;;;7.60;3.23;;;-4.90;99.90;;;-7.53;77.45;101696.75;10364527;28;96929;-76
2022/01/12 02:09:06;;;;;;;9.30;3.10;;;-4.90;99.90;;;-7.47;77.82;101706.16;10354373;28;97766;-78
2022/01/12 02:14:12;;;;;;;13.17;4.10;;;-5.00;99.90;;;-7.33;77.34;101715.44;10387538;27;98444;-77
2022/01/12 02:19:31;;;;;;;9.97;3.83;;;-4.90;99.90;;;-7.24;77.38;101711.06;10363797;27;96724;-75
2022/01/12 02:40:45;;;;;;;10.77;3.97;;;-4.90;99.90;;;-7.41;76.89;101709.53;10389290;27;96998;-75
2022/01/12 02:56:32;;;;;;;8.90;3.83;;;-5.00;99.90;;;-7.59;77.06;101715.75;10352337;28;99186;-75
2022/01/12 03:02:04;;;;;;;10.93;3.80;;;-5.00;99.90;;;-7.61;76.85;101716.66;10364156;28;96766;-76
2022/01/12 03:07:15;;;;;;;9.85;3.22;;;-5.10;99.90;;;-7.69;77.21;101708.09;10339273;28;97545;-76
2022/01/12 03:12:20;;;;;;;6.68;2.90;;;-5.10;99.90;;;-7.78;76.72;101709.06;10351778;28;96956;-75
2022/01/12 03:17:23;;;;;;;8.67;3.17;;;-5.20;99.90;;;-7.81;77.75;101714.25;10361218;27;98757;-77
2022/01/12 03:22:26;;;;;;;7.37;3.73;;;-5.20;99.90;;;-7.84;77.52;101722.88;10361037;28;97447;-77
2022/01/12 03:27:29;;;;;;;8.37;3.80;;;-5.30;99.90;;;-7.74;77.51;101725.38;10336712;28;96629;-77
2022/01/12 03:32:42;;;;;;;7.93;3.00;;;-5.30;99.90;;;-7.74;77.36;101723.63;10360348;28;97276;-77
2022/01/12 03:38:19;;;;;;;9.43;3.70;;;-5.20;99.90;;;-7.76;77.01;101727.13;10364512;28;97949;-77
2022/01/12 03:43:18;;;;;;;9.63;3.70;;;-5.30;99.90;;;-7.82;77.58;101728.88;10353603;28;98592;-77
2022/01/12 03:48:20;;;;;;;8.83;3.43;;;-5.30;99.90;;;-7.90;77.27;101727.25;10369256;27;96565;-77
2022/01/12 03:53:24;;;;;;;10.27;3.17;;;-5.30;99.90;;;-7.96;77.54;101724.72;10350196;28;96801;-76
2022/01/12 03:58:26;;;;;;;8.10;2.73;;;-5.40;99.90;;;-8.01;78.25;101722.19;10390737;27;96687;-75
2022/01/12 04:03:36;;;;;;;9.00;3.50;;;-5.40;99.90;;;-8.00;78.23;101723.88;10348242;28;96977;-75
2022/01/12 04:08:39;;;;;;;8.97;3.50;;;-5.40;99.90;;;-8.06;77.79;101723.94;10362673;28;98237;-75
2022/01/12 04:13:46;;;;;;;12.20;3.73;;;-5.50;99.90;;;-8.14;78.01;101711.13;10357403;28;98486;-75
2022/01/12 04:18:48;;;;;;;10.80;4.17;;;-5.50;99.90;;;-8.20;78.53;101720.63;10370434;27;98186;-75
2022/01/12 04:23:51;;;;;;;8.00;3.60;;;-5.60;99.90;;;-8.29;77.79;101715.53;10378846;27;97616;-75
2022/01/12 04:28:54;;;;;;;7.93;3.13;;;-5.70;99.90;;;-8.34;78.53;101723.28;10374294;28;96682;-75
2022/01/12 04:33:57;;;;;;;14.47;3.43;;;-5.70;99.90;;;-8.37;78.80;101729.38;10361561;28;97221;-75
2022/01/12 04:39:00;;;;;;;10.87;4.23;;;-5.80;99.90;;;-8.33;79.21;101726.75;10383136;27;97475;-75
2022/01/12 04:44:06;;;;;;;9.03;4.03;;;-5.80;99.90;;;-8.26;79.34;101736.16;10370355;28;96848;-75
2022/01/12 04:54:12;;;;;;;16.57;5.67;;;-5.70;99.90;;;-8.13;79.55;101748.06;10387057;27;98226;-75
2022/01/12 04:59:15;;;;;;;15.73;6.77;;;-5.70;99.90;;;-8.18;79.22;101749.81;10370667;27;96688;-76
2022/01/12 05:10:00;;;;;;;;;;;-5.70;99.90;;;-8.11;79.96;101752.34;10387176;27;99265;-76
2022/01/12 05:15:11;;;;;;;12.02;4.07;;;-5.70;99.90;;;-8.06;80.23;101744.56;10371698;27;96893;-76
2022/01/12 05:20:13;;;;;;;11.80;4.07;;;-5.60;99.90;;;-8.02;79.93;101750.56;10361821;28;96966;-74
2022/01/12 05:25:17;;;;;;;12.70;4.93;;;-5.60;99.90;;;-8.03;80.30;101766.94;10347721;28;99425;-76
2022/01/12 05:30:20;;;;;;;22.67;7.10;;;-5.60;99.90;;;-8.06;80.12;101770.38;10394272;27;96947;-75
2022/01/12 05:35:24;;;;;;;34.10;12.07;;;-5.60;99.90;;;-8.13;80.24;101768.72;10376731;27;97824;-75
2022/01/12 05:40:28;;;;;;;19.03;6.13;;;-5.60;99.90;;;-8.21;80.00;101768.78;10351937;28;98094;-75
2022/01/12 05:45:33;;;;;;;14.43;5.13;;;-5.70;99.90;;;-8.26;80.62;101772.25;10356088;28;99011;-75
2022/01/12 05:50:39;;;;;;;13.43;5.53;;;-5.80;99.90;;;-8.29;80.47;101791.16;10356379;28;99622;-76
2022/01/12 05:55:43;;;;;;;15.73;6.53;;;-5.80;99.90;;;-8.32;80.65;101788.63;10357771;28;98611;-75
2022/01/12 06:00:46;;;;;;;17.97;6.63;;;-5.80;99.90;;;-8.34;81.06;101792.91;10363104;28;96620;-75
2022/01/12 06:05:49;;;;;;;28.70;8.90;;;-5.80;99.90;;;-8.33;81.51;101801.53;10374268;27;97428;-75
2022/01/12 06:10:52;;;;;;;26.77;9.23;;;-5.80;99.90;;;-8.35;81.43;101816.97;10379092;28;99207;-75
2022/01/12 06:15:55;;;;;;;17.87;7.43;;;-5.90;99.90;;;-8.39;81.74;101820.50;10393123;27;96586;-75
2022/01/12 06:20:58;;;;;;;25.67;7.47;;;-5.90;99.90;;;-8.41;81.83;101810.16;10354184;28;97682;-77
2022/01/12 06:26:02;;;;;;;23.97;7.67;;;-5.90;99.90;;;-8.38;82.39;101820.47;10400980;27;99282;-75
2022/01/12 06:31:12;;;;;;;14.93;6.17;;;-5.90;99.90;;;-8.35;82.79;101823.00;10372416;28;96701;-75
2022/01/12 06:36:20;;;;;;;24.93;9.53;;;-5.90;99.90;;;-8.31;82.18;101829.00;10394533;27;97017;-76
2022/01/12 06:41:23;;;;;;;39.03;11.33;;;-5.90;99.90;;;-8.34;82.08;101834.16;10372631;27;96709;-76
2022/01/12 06:46:29;;;;;;;19.33;6.60;;;-5.80;99.90;;;-8.34;81.75;101836.75;10357390;28;97126;-75
2022/01/12 06:51:32;;;;;;;12.93;5.70;;;-5.90;99.90;;;-8.30;82.90;101840.16;10373661;28;96956;-75
2022/01/12 06:56:36;;;;;;;20.90;7.10;;;-5.80;99.90;;;-8.05;83.40;101833.13;10363600;28;96864;-75
2022/01/12 07:01:39;;;;;;;60.40;20.90;;;-5.80;99.90;;;-7.46;83.54;101834.41;10380344;27;97085;-76
2022/01/12 07:06:42;;;;;;;24.53;8.77;;;-5.60;99.90;;;-6.86;82.17;101838.09;10362883;28;98541;-75
2022/01/12 07:11:49;;;;;;;23.77;8.37;;;-5.30;99.90;;;-6.43;80.75;101834.97;10380325;28;96652;-77
2022/01/12 07:16:52;;;;;;;21.63;7.37;;;-5.00;99.90;;;-6.06;78.92;101844.81;10403716;27;97220;-76
2022/01/12 07:21:55;;;;;;;18.20;6.13;;;-4.70;99.90;;;-5.68;77.85;101850.25;10379031;28;96940;-76
2022/01/12 07:26:58;;;;;;;17.83;7.23;;;-4.40;99.90;;;-5.25;75.92;101854.69;10366603;28;97142;-74
2022/01/12 07:32:01;;;;;;;14.27;6.03;;;-4.00;99.90;;;-4.90;74.66;101863.59;10400336;27;96991;-75
2022/01/12 07:37:05;;;;;;;17.70;7.10;;;-3.70;99.90;;;-4.73;72.95;101864.13;10393798;27;98302;-75
2022/01/12 07:42:08;;;;;;;28.93;10.37;;;-3.40;99.90;;;-4.29;73.06;101870.13;10366870;28;99542;-75
2022/01/12 07:47:11;;;;;;;32.87;12.13;;;-3.10;99.90;;;-3.76;72.48;101878.47;10353594;28;96594;-77
2022/01/12 07:52:14;;;;;;;28.37;13.63;;;-2.80;99.90;;;-3.55;68.61;101871.91;10352821;28;97118;-78
2022/01/12 07:57:18;;;;;;;32.60;14.57;;;-2.60;99.90;;;-3.40;68.06;101883.69;10358003;28;98249;-77
2022/01/12 08:02:21;;;;;;;33.93;14.97;;;-2.50;99.90;;;-3.10;67.49;101893.31;10397736;27;99546;-75
2022/01/12 08:07:24;;;;;;;35.63;15.20;;;-2.30;99.90;;;-2.84;66.21;101887.41;10373641;28;97868;-76
2022/01/12 08:12:27;;;;;;;38.40;16.53;;;-2.10;99.90;;;-2.49;66.17;101883.84;10359574;28;102705;-77
2022/01/12 08:17:30;;;;;;;36.23;15.70;;;-1.80;99.90;;;-2.18;65.01;101891.63;10358805;28;97495;-77
2022/01/12 08:22:33;;;;;;;35.57;15.97;;;-1.60;99.90;;;-1.90;64.11;101902.09;10361146;28;98348;-77
2022/01/12 08:27:38;;;;;;;26.77;12.47;;;-1.20;99.90;;;-1.52;63.03;101914.81;10373121;28;96794;-78
2022/01/12 08:32:41;;;;;;;27.80;11.80;;;-0.80;99.90;;;-1.21;62.25;101910.31;10391208;28;96926;-76
2022/01/12 08:37:45;;;;;;;27.80;14.67;;;-0.40;99.70;;;-0.93;61.57;101917.22;10356310;28;96873;-78
2022/01/12 08:42:48;;;;;;;26.80;13.40;;;0.00;99.90;;;-0.55;60.92;101914.09;10366232;28;96715;-78
2022/01/12 08:47:51;;;;;;;29.20;14.27;;;0.40;99.90;;;-0.24;59.46;101909.53;10362440;28;98093;-78
2022/01/12 08:52:55;;;;;;;34.93;14.07;;;0.80;99.90;;;0.07;58.51;101910.09;10367458;28;96631;-77
2022/01/12 08:57:58;;;;;;;27.47;14.27;;;1.10;98.50;;;0.45;57.93;101910.34;10365851;28;96807;-78
2022/01/12 09:03:02;;;;;;;37.33;16.90;;;1.40;96.70;;;0.70;56.20;101897.13;10367309;28;96713;-77
2022/01/12 09:08:06;;;;;;;24.33;12.20;;;1.70;94.80;;;0.50;56.21;101900.56;10397207;27;98007;-77
2022/01/12 09:13:09;;;;;;;30.50;13.10;;;1.80;93.70;;;-0.27;56.22;101903.50;10372238;27;96984;-77
2022/01/12 09:18:12;;;;;;;32.20;14.83;;;1.60;91.10;;;-0.96;57.38;101910.34;10326957;28;98441;-77
2022/01/12 09:23:16;;;;;;;31.03;13.50;;;1.20;91.30;;;-0.79;59.33;101919.34;10310412;28;97009;-75
2022/01/12 09:28:19;;;;;;;33.43;15.80;;;1.10;92.70;;;-0.01;58.47;101907.75;10341927;27;98444;-75
2022/01/12 09:33:22;;;;;;;23.23;11.53;;;1.40;93.10;;;0.97;57.55;101903.84;10341874;27;98027;-75
2022/01/12 09:38:25;;;;;;;23.07;12.67;;;2.00;92.70;;;1.70;55.09;101902.38;10320399;28;96840;-75
2022/01/12 09:43:32;;;;;;;21.23;11.90;;;2.60;90.50;;;2.29;52.99;101896.16;10314949;28;97846;-74
2022/01/12 09:48:36;;;;;;;27.40;13.00;;;3.30;90.30;;;2.86;52.07;101890.72;10303424;28;97334;-76
2022/01/12 09:53:41;;;;;;;27.30;14.00;;;3.90;90.00;;;3.44;50.68;101890.38;10309289;28;96994;-76
2022/01/12 09:58:45;;;;;;;27.97;14.53;;;4.40;83.60;;;3.35;49.01;101889.06;10315230;28;98374;-75
2022/01/12 10:03:48;;;;;;;24.90;12.63;;;4.50;83.90;;;2.88;48.48;101894.16;10320712;28;97885;-75
2022/01/12 10:08:54;;;;;;;29.83;13.13;;;4.30;79.40;;;2.07;48.77;101900.69;10310327;28;96925;-74
2022/01/12 10:14:00;;;;;;;31.67;15.33;;;3.90;73.80;;;1.22;49.60;101895.78;10369886;27;98430;-74
2022/01/12 10:19:03;;;;;;;25.10;12.93;;;3.40;71.90;;;0.49;50.66;101904.94;10381903;27;96609;-74
2022/01/12 10:24:10;;;;;;;19.53;9.27;;;2.80;72.20;;;-0.04;50.71;101902.66;10351368;28;96587;-74
2022/01/12 10:29:24;;;;;;;17.77;8.53;;;2.30;72.20;;;-0.50;51.49;101903.50;10394160;27;98578;-74
2022/01/12 10:34:38;;;;;;;16.97;8.27;;;1.80;71.10;;;-0.84;52.55;101890.78;10343761;28;98108;-74
2022/01/12 10:39:45;;;;;;;22.80;9.03;;;1.50;69.80;;;-1.04;53.00;101906.28;10391151;27;96880;-74
2022/01/12 10:44:53;;;;;;;17.63;7.90;;;1.20;72.80;;;-1.15;54.06;101904.88;10346844;28;97547;-74
2022/01/12 10:49:55;;;;;;;17.33;7.93;;;1.10;72.70;;;-1.21;54.33;101899.88;10387309;27;96603;-74
2022/01/12 10:55:08;;;;;;;22.37;8.40;;;1.00;73.50;;;-1.08;55.41;101892.47;10352759;27;98341;-74
2022/01/12 11:00:18;;;;;;;17.77;8.33;;;1.00;74.30;;;0.06;54.87;101887.50;10372627;27;98233;-75
2022/01/12 11:05:25;;;;;;;21.25;8.40;;;1.80;77.40;;;0.79;50.67;101895.00;10358864;28;97496;-75
2022/01/12 11:10:29;;;;;;;19.33;8.87;;;2.40;70.60;;;0.99;51.43;101886.28;10345228;28;97424;-76
2022/01/12 11:15:33;;;;;;;39.80;16.47;;;2.70;72.70;;;1.48;49.77;101878.06;10374826;27;96959;-75
2022/01/12 11:20:40;;;;;;;17.17;8.40;;;3.10;72.40;;;1.59;49.27;101884.53;10379965;27;98262;-74
2022/01/12 11:25:52;;;;;;;16.77;7.70;;;3.20;69.50;;;1.16;48.47;101880.34;10359769;28;97133;-74
2022/01/12 11:30:55;;;;;;;20.90;9.32;;;3.00;67.20;;;0.72;49.45;101875.22;10365638;28;98207;-74
2022/01/12 11:36:28;;;;;;;18.73;8.37;;;2.70;67.60;;;0.40;50.93;101868.69;10343190;27;98530;-74
2022/01/12 11:41:34;;;;;;;18.97;9.37;;;2.50;68.50;;;0.12;50.87;101862.84;10349884;28;97050;-74
2022/01/12 11:46:51;;;;;;;20.70;9.57;;;2.20;67.80;;;-0.14;51.49;101867.31;10366253;28;96736;-73
2022/01/12 11:52:12;;;;;;;19.67;8.73;;;2.00;67.80;;;-0.35;52.23;101861.16;10363861;28;98126;-74
2022/01/12 11:57:20;;;;;;;20.73;9.80;;;1.80;68.30;;;-0.50;52.60;101866.09;10383646;27;97247;-74
2022/01/12 12:02:39;;;;;;;18.10;8.70;;;1.60;69.30;;;-0.55;52.93;101866.25;10384035;27;98262;-76
2022/01/12 12:08:02;;;;;;;17.30;8.47;;;1.60;69.70;;;-0.57;53.41;101860.25;10392341;27;97131;-76
2022/01/12 12:13:08;;;;;;;36.33;23.83;;;1.50;69.80;;;-0.53;53.57;101864.47;10326241;27;98407;-75
2022/01/12 12:18:11;;;;;;;37.57;16.90;;;1.50;70.10;;;-0.50;53.55;101851.28;10311878;28;97188;-74
2022/01/12 12:23:22;;;;;;;19.60;8.63;;;1.60;70.50;;;-0.48;53.04;101864.25;10281183;28;98047;-76
2022/01/12 12:28:25;;;;;;;24.87;10.73;;;1.60;69.80;;;-0.48;52.87;101870.38;10317632;28;96689;-75
2022/01/12 12:33:28;;;;;;;26.30;12.00;;;1.60;70.10;;;-0.45;54.16;101872.84;10296875;28;98761;-75
2022/01/12 12:38:30;;;;;;;32.43;12.70;;;1.60;70.90;;;-0.43;54.44;101863.19;10285055;28;97667;-75
2022/01/12 12:43:36;;;;;;;37.80;12.73;;;1.60;71.20;;;-0.43;55.19;101844.91;10281795;28;96937;-77
2022/01/12 12:48:40;;;;;;;40.67;15.03;;;1.60;71.80;;;-0.43;55.16;101849.28;10277900;28;96791;-77
2022/01/12 12:53:52;;;;;;;25.63;11.67;;;1.60;71.80;;;-0.47;54.79;101843.34;10280139;28;98068;-77
2022/01/12 12:58:57;;;;;;;27.80;11.67;;;1.60;71.80;;;-0.55;55.00;101845.34;10305660;28;96871;-77
2022/01/12 13:04:02;;;;;;;27.63;14.87;;;1.50;71.90;;;-0.61;55.15;101848.19;10303352;28;96765;-76
2022/01/12 13:09:13;;;;;;;26.10;11.43;;;1.40;72.20;;;-0.69;56.20;101845.88;10284951;28;98332;-75
2022/01/12 13:14:17;;;;;;;29.97;11.80;;;1.40;73.10;;;-0.74;56.59;101858.25;10363282;27;97013;-76
2022/01/12 13:24:58;;;;;;;29.37;11.50;;;1.30;73.90;;;-0.85;56.92;101863.84;10379650;28;98358;-76
2022/01/12 13:30:03;;;;;;;41.77;18.57;;;1.20;73.80;;;-0.90;56.70;101864.91;10395146;27;98331;-75
2022/01/12 13:35:11;;;;;;;33.13;13.47;;;1.20;73.90;;;-0.96;56.61;101857.28;10382467;27;96713;-76
2022/01/12 13:40:15;;;;;;;62.67;23.00;;;1.10;73.90;;;-1.05;56.44;101855.00;10358109;28;99080;-76
2022/01/12 13:45:25;;;;;;;57.03;22.43;;;1.00;73.70;;;-1.12;56.72;101849.16;10350548;28;98414;-75
2022/01/12 13:50:36;;;;;;;72.23;26.23;;;0.90;73.90;;;-1.21;56.97;101852.06;10363369;28;96638;-76
2022/01/12 13:55:54;;;;;;;43.17;16.07;;;0.80;74.20;;;-1.29;57.67;101856.69;10355126;28;98585;-75
2022/01/12 14:01:11;;;;;;;23.00;9.17;;;0.80;74.60;;;-1.38;57.75;101861.34;10372789;27;99004;-75
2022/01/12 14:06:25;;;;;;;30.73;13.80;;;0.70;75.10;;;-1.49;59.10;101880.84;10359217;28;98700;-75
2022/01/12 14:11:34;;;;;;;18.83;8.87;;;0.60;76.10;;;-1.63;59.66;101883.88;10362211;28;96670;-76
2022/01/12 14:16:38;;;;;;;21.83;9.17;;;0.40;76.90;;;-1.75;60.56;101884.25;10373202;27;98582;-75
2022/01/12 14:21:57;;;;;;;19.27;8.87;;;0.30;77.70;;;-1.86;60.89;101875.91;10360627;28;97337;-76
2022/01/12 14:27:00;;;;;;;16.63;8.93;;;0.20;78.60;;;-1.98;61.59;101874.53;10378488;27;96862;-75
2022/01/12 14:32:05;;;;;;;28.40;12.90;;;0.10;79.30;;;-2.10;62.29;101865.34;10355524;28;97878;-76
2022/01/12 14:37:09;;;;;;;20.27;9.37;;;0.00;79.60;;;-2.22;62.90;101884.81;10352914;28;97234;-76
2022/01/12 14:42:12;;;;;;;22.20;9.00;;;-0.10;80.40;;;-2.35;63.63;101893.00;10343937;28;97430;-76
2022/01/12 14:47:15;;;;;;;15.63;7.77;;;-0.20;81.10;;;-2.48;63.52;101876.88;10357687;28;97929;-76
2022/01/12 14:52:18;;;;;;;25.97;9.50;;;-0.30;81.70;;;-2.65;63.58;101861.75;10355577;28;96746;-76
2022/01/12 14:57:21;;;;;;;21.20;10.60;;;-0.40;81.60;;;-2.78;64.11;101879.44;10368839;27;97057;-76
2022/01/12 15:02:27;;;;;;;19.60;8.77;;;-0.60;82.50;;;-2.91;64.75;101879.84;10355019;28;97041;-76
2022/01/12 15:07:31;;;;;;;27.57;11.33;;;-0.70;82.70;;;-3.03;65.12;101875.81;10360965;28;96700;-76
2022/01/12 15:12:38;;;;;;;20.50;8.37;;;-0.80;83.60;;;-3.13;65.34;101867.38;10349452;28;97197;-76
2022/01/12 15:17:41;;;;;;;13.83;6.53;;;-0.90;83.30;;;-3.22;66.15;101875.44;10377777;27;98253;-76
2022/01/12 15:22:48;;;;;;;20.13;7.53;;;-1.00;84.40;;;-3.28;66.83;101889.44;10372674;27;98297;-76
2022/01/12 15:27:51;;;;;;;19.27;8.70;;;-1.10;86.40;;;-3.31;67.28;101896.44;10361270;28;96784;-76
2022/01/12 15:32:54;;;;;;;19.53;8.20;;;-1.10;86.70;;;-3.39;67.80;101913.97;10370726;28;98042;-76
2022/01/12 15:37:58;;;;;;;23.47;9.03;;;-1.20;88.20;;;-3.45;68.54;101911.53;10388951;27;96560;-76
2022/01/12 15:43:01;;;;;;;28.73;11.20;;;-1.30;89.10;;;-3.55;68.77;101900.50;10378777;27;97277;-76
2022/01/12 15:48:06;;;;;;;43.13;17.40;;;-1.30;90.00;;;-3.65;68.94;101912.00;10358001;28;96778;-75
2022/01/12 15:53:09;;;;;;;40.77;17.93;;;-1.40;89.50;;;-3.72;69.22;101924.25;10357382;28;96670;-75
2022/01/12 15:58:13;;;;;;;28.37;11.50;;;-1.50;90.30;;;-3.72;69.64;101946.78;10362678;27;98443;-76
2022/01/12 16:03:16;;;;;;;34.33;13.30;;;-1.50;91.20;;;-3.65;70.01;101935.41;10358556;28;97961;-73
2022/01/12 16:08:20;;;;;;;43.57;17.50;;;-1.50;91.90;;;-3.53;70.54;101915.19;10358317;28;97973;-74
2022/01/12 16:13:22;;;;;;;64.07;26.60;;;-1.40;91.90;;;-3.46;71.01;101915.88;10354261;28;96817;-74
2022/01/12 16:18:47;;;;;;;64.13;24.00;;;-1.40;92.50;;;-3.39;71.27;101916.59;10361681;28;97432;-74
2022/01/12 16:23:53;;;;;;;55.70;19.43;;;-1.30;93.50;;;-3.37;71.32;101907.00;10366930;27;97368;-75
2022/01/12 16:28:57;;;;;;;56.90;19.63;;;-1.30;94.10;;;-3.34;71.39;101904.34;10388421;27;98453;-74
2022/01/12 16:34:00;;;;;;;45.23;15.93;;;-1.30;94.10;;;-3.35;71.85;101903.47;10372123;27;98294;-74
2022/01/12 16:39:12;;;;;;;44.43;17.50;;;-1.20;94.50;;;-3.31;71.86;101907.69;10363254;28;96675;-74
2022/01/12 16:44:19;;;;;;;41.77;14.43;;;-1.20;95.20;;;-3.28;71.79;101924.97;10365809;28;98009;-76
2022/01/12 16:49:22;;;;;;;58.53;22.23;;;-1.20;95.30;;;-3.29;72.04;101923.28;10351321;28;97202;-76
2022/01/12 16:54:25;;;;;;;57.00;21.93;;;-1.20;95.90;;;-3.31;72.70;101910.28;10364799;28;96860;-77
2022/01/12 16:59:28;;;;;;;44.47;17.07;;;-1.20;96.30;;;-3.34;72.36;101930.31;10363165;28;96530;-74
2022/01/12 17:04:30;;;;;;;53.40;20.23;;;-1.30;97.20;;;-3.40;72.96;101917.47;10374922;28;96678;-74
2022/01/12 17:09:33;;;;;;;39.13;14.93;;;-1.30;97.00;;;-3.46;72.77;101943.63;10351149;28;96795;-74
2022/01/12 17:14:36;;;;;;;45.57;17.93;;;-1.40;99.00;;;-3.51;72.70;101949.78;10354409;28;97264;-75
2022/01/12 17:19:39;;;;;;;44.77;17.20;;;-1.40;97.40;;;-3.51;72.68;101957.56;10365339;28;96603;-74
2022/01/12 17:25:23;;;;;;;42.13;14.87;;;-1.40;97.60;;;-3.54;72.52;101948.97;10359273;28;96973;-77
2022/01/12 17:30:26;;;;;;;38.87;14.73;;;-1.40;97.90;;;-3.56;72.54;101968.94;10351340;28;98455;-76
2022/01/12 17:35:29;;;;;;;45.40;16.70;;;-1.40;97.50;;;-3.61;72.38;101978.59;10356809;27;97505;-77
2022/01/12 17:40:32;;;;;;;39.90;14.90;;;-1.50;97.90;;;-3.65;72.21;101972.63;10349805;28;97517;-76
2022/01/12 17:45:36;;;;;;;45.43;15.93;;;-1.50;98.10;;;-3.63;72.50;101978.63;10359830;28;96575;-76
2022/01/12 17:50:39;;;;;;;39.43;14.40;;;-1.50;98.40;;;-3.63;72.25;101965.63;10352406;28;96647;-76
2022/01/12 17:55:42;;;;;;;41.27;16.63;;;-1.50;98.50;;;-3.61;72.24;101974.25;10343380;28;98698;-75
2022/01/12 18:00:45;;;;;;;46.23;16.90;;;-1.40;98.10;;;-3.61;72.08;101989.84;10371471;28;96576;-76
2022/01/12 18:05:48;;;;;;;39.20;15.33;;;-1.50;98.40;;;-3.65;72.07;101989.97;10357576;28;98084;-75
2022/01/12 18:10:52;;;;;;;73.33;26.10;;;-1.50;98.00;;;-3.73;72.01;101966.72;10368442;28;100037;-75
2022/01/12 18:16:02;;;;;;;59.73;22.43;;;-1.50;97.90;;;-3.81;71.98;101973.84;10353842;28;97387;-74
2022/01/12 18:21:07;;;;;;;64.50;21.77;;;-1.60;97.50;;;-3.95;72.36;101976.75;10352910;28;97876;-74
2022/01/12 18:26:10;;;;;;;48.67;17.67;;;-1.70;97.60;;;-4.03;73.16;102005.44;10350492;27;96828;-75
2022/01/12 18:31:13;;;;;;;42.77;16.20;;;-1.80;97.60;;;-4.14;73.33;101998.75;10353660;28;98257;-75
2022/01/12 18:36:17;;;;;;;65.53;24.10;;;-1.90;97.90;;;-4.31;73.56;102006.88;10362120;28;96525;-76
2022/01/12 18:41:22;;;;;;;44.37;17.37;;;-2.00;97.90;;;-4.46;74.31;101994.19;10371668;28;96581;-75
2022/01/12 18:46:25;;;;;;;35.57;14.67;;;-2.10;98.80;;;-4.58;74.95;101985.72;10351191;28;96637;-76
2022/01/12 18:51:28;;;;;;;37.50;15.43;;;-2.30;99.00;;;-4.64;75.53;101985.84;10385725;28;96590;-77
2022/01/12 18:56:37;;;;;;;46.73;17.37;;;-2.40;99.30;;;-4.74;75.39;101984.28;10362556;28;96604;-76
2022/01/12 19:01:41;;;;;;;42.53;15.23;;;-2.50;99.90;;;-4.84;75.80;101995.72;10345217;28;97995;-75
2022/01/12 19:06:45;;;;;;;29.20;12.70;;;-2.60;99.90;;;-4.91;76.33;101994.13;10367548;28;96963;-76
2022/01/12 19:11:48;;;;;;;28.10;11.27;;;-2.60;99.90;;;-4.94;76.94;101983.78;10368294;28;97484;-76
2022/01/12 19:16:51;;;;;;;34.60;13.13;;;-2.70;99.90;;;-4.95;77.40;101995.91;10370293;28;96626;-76
2022/01/12 19:21:56;;;;;;;28.23;12.33;;;-2.70;99.90;;;-4.98;77.39;102002.84;10368701;28;96819;-76
2022/01/12 19:26:59;;;;;;;33.70;12.93;;;-2.70;99.90;;;-5.04;77.46;101997.78;10353468;28;101963;-76
2022/01/12 19:32:02;;;;;;;32.33;12.63;;;-2.80;99.90;;;-5.14;77.19;102013.47;10364968;28;97448;-76
2022/01/12 19:37:06;;;;;;;29.67;11.70;;;-2.90;99.90;;;-5.24;77.94;102022.28;10381505;27;98283;-77
2022/01/12 19:42:09;;;;;;;34.17;13.33;;;-2.90;99.90;;;-5.34;77.69;102018.09;10366015;27;98096;-78
2022/01/12 19:47:18;;;;;;;30.17;11.87;;;-3.10;99.90;;;-5.44;78.57;102012.22;10390312;27;96636;-76
2022/01/12 19:52:54;;;;;;;34.33;12.77;;;-3.10;99.90;;;-5.43;79.41;102002.69;10361533;28;98198;-77
2022/01/12 19:58:04;;;;;;;33.00;12.53;;;-3.20;99.90;;;-5.43;79.38;102006.16;10389112;27;98316;-76
2022/01/12 20:03:15;;;;;;;31.17;12.67;;;-3.20;99.90;;;-5.42;79.97;102002.66;10371292;28;96736;-77
2022/01/12 20:08:44;;;;;;;29.70;12.70;;;-3.20;99.90;;;-5.45;79.23;101997.53;10387367;28;98566;-77
2022/01/12 20:13:50;;;;;;;34.70;11.70;;;-3.20;99.90;;;-5.49;79.31;102007.97;10349612;28;98064;-77
2022/01/12 20:24:31;;;;;;;35.57;13.23;;;-3.30;99.90;;;-5.58;79.70;102015.84;10386136;27;98211;-77
2022/01/12 20:29:41;;;;;;;34.40;12.40;;;-3.30;99.90;;;-5.68;79.62;102016.00;10353168;28;97462;-78
2022/01/12 20:34:51;;;;;;;34.67;12.77;;;-3.40;99.90;;;-5.71;80.02;102025.53;10396001;27;98260;-77
2022/01/12 20:39:54;;;;;;;32.77;11.77;;;-3.50;99.90;;;-5.75;80.55;102026.47;10357851;28;99520;-78
2022/01/12 20:44:57;;;;;;;33.57;13.00;;;-3.50;99.90;;;-5.79;80.37;102028.22;10381422;28;98271;-78
2022/01/12 20:50:00;;;;;;;37.07;13.93;;;-3.50;99.90;;;-5.87;80.07;102032.66;10373306;28;98749;-77
2022/01/12 20:55:05;;;;;;;40.73;14.47;;;-3.50;99.90;;;-5.99;80.29;102043.19;10374178;28;98355;-77
2022/01/12 21:00:09;;;;;;;54.03;18.67;;;-3.60;99.90;;;-6.08;80.47;102048.44;10381753;27;99555;-77
2022/01/12 21:05:12;;;;;;;38.73;15.50;;;-3.70;99.90;;;-6.19;80.47;102048.56;10415056;27;97645;-78
2022/01/12 21:10:15;;;;;;;44.97;16.30;;;-3.80;99.90;;;-6.29;81.21;102046.97;10371445;27;96629;-77
2022/01/12 21:15:20;;;;;;;48.40;15.47;;;-3.90;99.90;;;-6.42;80.51;102041.03;10362604;28;96754;-77
2022/01/12 21:20:23;;;;;;;48.93;16.00;;;-3.90;99.90;;;-6.57;80.71;102038.59;10392335;27;97087;-77
2022/01/12 21:25:26;;;;;;;46.47;17.23;;;-4.00;99.90;;;-6.72;80.66;102036.13;10370870;28;98311;-77
2022/01/12 21:30:28;;;;;;;38.60;13.83;;;-4.20;99.90;;;-6.87;81.32;102040.56;10366107;28;96593;-77
2022/01/12 21:35:34;;;;;;;35.30;12.53;;;-4.30;99.90;;;-6.94;82.01;102041.50;10367250;28;96802;-77
2022/01/12 21:40:44;;;;;;;31.73;12.07;;;-4.40;99.90;;;-6.98;82.44;102039.81;10343826;28;96992;-77
2022/01/12 21:45:49;;;;;;;39.37;12.67;;;-4.50;99.90;;;-7.02;83.01;102049.31;10374443;27;96787;-78
2022/01/12 21:50:52;;;;;;;28.73;12.00;;;-4.50;99.90;;;-7.05;82.57;102043.31;10378042;27;98352;-78
2022/01/12 21:55:55;;;;;;;37.67;11.63;;;-4.60;99.90;;;-7.10;83.05;102045.06;10403798;27;96620;-77
2022/01/12 22:00:58;;;;;;;36.27;13.23;;;-4.60;99.90;;;-7.09;83.58;102065.72;10367732;28;96597;-78